createdAt,value
2023-04-10T00:00:01.096Z,5.85
2023-04-10T00:02:28.851Z,5.76
2023-04-10T00:04:56.592Z,5.67
2023-04-10T00:07:23.875Z,5.72
2023-04-10T00:09:51.086Z,5.77
2023-04-10T00:12:18.638Z,5.79
2023-04-10T00:14:45.888Z,5.79
2023-04-10T00:17:13.198Z,5.81
2023-04-10T00:19:40.687Z,5.81
2023-04-10T00:22:07.932Z,5.73
2023-04-10T00:24:35.402Z,5.67
2023-04-10T00:27:02.920Z,5.65
2023-04-10T00:29:30.265Z,5.57
2023-04-10T00:31:58.007Z,5.58
2023-04-10T00:34:25.822Z,5.52
2023-04-10T00:36:53.038Z,5.45
2023-04-10T00:39:20.539Z,5.43
2023-04-10T00:41:48.044Z,5.45
2023-04-10T00:44:15.422Z,5.46
2023-04-10T00:46:42.708Z,5.37
2023-04-10T00:49:10.756Z,5.50
2023-04-10T00:51:37.965Z,5.43
2023-04-10T00:54:06.568Z,5.35
2023-04-10T00:56:34.091Z,5.45
2023-04-10T00:59:04.055Z,5.32
2023-04-10T01:01:32.410Z,5.21
2023-04-10T01:04:00.558Z,5.07
2023-04-10T01:06:36.813Z,5.02
2023-04-10T01:09:22.513Z,4.98
2023-04-10T01:11:58.632Z,4.96
2023-04-10T01:15:01.231Z,4.93
2023-04-10T01:17:55.648Z,4.96
2023-04-10T01:20:24.536Z,4.96
2023-04-10T01:23:20.739Z,4.89
2023-04-10T01:25:56.942Z,4.81
2023-04-10T01:28:39.046Z,4.72
2023-04-10T01:31:09.225Z,4.76
2023-04-10T01:33:45.846Z,4.79
2023-04-10T01:36:21.957Z,4.81
2023-04-10T01:38:49.778Z,4.85
2023-04-10T01:41:19.004Z,4.89
2023-04-10T01:43:49.387Z,4.95
2023-04-10T01:46:18.618Z,4.99
2023-04-10T01:48:47.497Z,5.09
2023-04-10T01:51:16.137Z,4.97
2023-04-10T01:53:45.777Z,4.93
2023-04-10T01:56:13.410Z,4.88
2023-04-10T01:58:41.177Z,4.88
2023-04-10T02:01:16.391Z,4.88
2023-04-10T02:03:50.776Z,4.89
2023-04-10T02:06:21.950Z,4.92
2023-04-10T02:08:59.368Z,4.92
2023-04-10T02:11:36.878Z,4.95
2023-04-10T02:14:06.028Z,5.01
2023-04-10T02:16:33.492Z,5.00
2023-04-10T02:19:01.672Z,4.99
2023-04-10T02:21:29.184Z,4.99
2023-04-10T02:23:57.658Z,4.96
2023-04-10T02:26:24.784Z,4.87
2023-04-10T02:28:52.221Z,4.90
2023-04-10T02:31:19.515Z,4.80
2023-04-10T02:33:47.459Z,4.72
2023-04-10T02:36:14.911Z,4.68
2023-04-10T02:38:42.131Z,4.66
2023-04-10T02:41:09.849Z,4.63
2023-04-10T02:43:37.324Z,4.62
2023-04-10T02:46:04.831Z,4.57
2023-04-10T02:48:33.292Z,4.52
2023-04-10T02:51:01.607Z,4.41
2023-04-10T02:53:28.918Z,4.29
2023-04-10T02:55:56.336Z,4.22
2023-04-10T02:58:23.770Z,4.20
2023-04-10T03:00:51.747Z,4.25
2023-04-10T03:03:20.018Z,4.14
2023-04-10T03:05:49.552Z,4.11
2023-04-10T03:08:17.620Z,4.04
2023-04-10T03:10:46.398Z,3.98
2023-04-10T03:13:14.836Z,3.90
2023-04-10T03:15:42.288Z,3.84
2023-04-10T03:18:09.886Z,3.87
2023-04-10T03:20:38.762Z,4.02
2023-04-10T03:23:07.198Z,4.20
2023-04-10T03:25:35.459Z,4.45
2023-04-10T03:28:03.675Z,4.68
2023-04-10T03:30:31.291Z,4.72
2023-04-10T03:32:58.519Z,4.58
2023-04-10T03:35:26.170Z,4.65
2023-04-10T03:37:53.376Z,4.64
2023-04-10T03:40:20.833Z,4.71
2023-04-10T03:42:48.655Z,4.51
2023-04-10T03:45:16.611Z,4.56
2023-04-10T03:47:44.043Z,4.74
2023-04-10T03:50:12.149Z,4.73
2023-04-10T03:52:40.447Z,4.90
2023-04-10T03:55:11.284Z,5.01
2023-04-10T03:57:38.877Z,5.09
2023-04-10T04:00:06.785Z,5.02
2023-04-10T04:02:36.013Z,4.96
2023-04-10T04:05:04.268Z,4.84
2023-04-10T04:07:32.755Z,4.87
2023-04-10T04:10:03.428Z,4.82
2023-04-10T04:12:31.917Z,4.99
2023-04-10T04:14:59.615Z,4.88
2023-04-10T04:17:26.961Z,4.80
2023-04-10T04:19:55.008Z,4.53
2023-04-10T04:22:22.742Z,4.74
2023-04-10T04:24:53.712Z,4.68
2023-04-10T04:27:23.276Z,4.57
2023-04-10T04:29:50.880Z,4.62
2023-04-10T04:32:18.253Z,4.53
2023-04-10T04:34:48.283Z,4.40
2023-04-10T04:37:16.848Z,4.32
2023-04-10T04:39:45.196Z,4.43
2023-04-10T04:42:12.927Z,4.27
2023-04-10T04:44:41.055Z,4.15
2023-04-10T04:47:08.275Z,4.09
2023-04-10T04:49:36.494Z,4.15
2023-04-10T04:52:04.039Z,4.26
2023-04-10T04:54:33.968Z,4.38
2023-04-10T04:57:01.791Z,4.30
2023-04-10T04:59:29.246Z,4.22
2023-04-10T05:01:56.794Z,4.40
2023-04-10T05:04:25.106Z,4.44
2023-04-10T05:06:52.866Z,4.64
2023-04-10T05:09:20.252Z,4.77
2023-04-10T05:11:47.970Z,4.98
2023-04-10T05:14:15.490Z,5.21
2023-04-10T05:16:43.149Z,5.24
2023-04-10T05:19:10.995Z,5.29
2023-04-10T05:21:39.429Z,5.29
2023-04-10T05:24:06.971Z,5.32
2023-04-10T05:26:36.975Z,5.44
2023-04-10T05:29:04.746Z,5.43
2023-04-10T05:31:32.085Z,5.49
2023-04-10T05:33:59.953Z,5.69
2023-04-10T05:36:29.005Z,5.70
2023-04-10T05:38:57.289Z,5.68
2023-04-10T05:41:25.274Z,5.67
2023-04-10T05:43:54.486Z,5.75
2023-04-10T05:46:22.064Z,5.87
2023-04-10T05:48:49.809Z,5.97
2023-04-10T05:51:17.206Z,6.12
2023-04-10T05:53:45.392Z,6.42
2023-04-10T05:56:13.402Z,6.52
2023-04-10T05:58:40.898Z,6.63
2023-04-10T06:01:08.367Z,6.79
2023-04-10T06:03:36.542Z,6.96
2023-04-10T06:06:04.157Z,7.13
2023-04-10T06:08:31.551Z,7.28
2023-04-10T06:10:59.576Z,7.54
2023-04-10T06:13:27.559Z,7.73
2023-04-10T06:15:55.070Z,8.01
2023-04-10T06:18:23.528Z,8.35
2023-04-10T06:20:50.656Z,8.54
2023-04-10T06:23:17.833Z,8.68
2023-04-10T06:25:45.323Z,8.76
2023-04-10T06:28:12.436Z,8.84
2023-04-10T06:30:39.959Z,8.73
2023-04-10T06:33:07.494Z,8.89
2023-04-10T06:35:35.997Z,9.12
2023-04-10T06:38:04.200Z,9.19
2023-04-10T06:40:34.181Z,9.24
2023-04-10T06:43:01.590Z,9.29
2023-04-10T06:45:29.012Z,9.39
2023-04-10T06:47:56.496Z,9.68
2023-04-10T06:50:23.697Z,9.96
2023-04-10T06:52:53.122Z,10.01
2023-04-10T06:55:20.791Z,9.97
2023-04-10T06:57:47.917Z,9.97
2023-04-10T07:00:15.470Z,9.95
2023-04-10T07:02:42.919Z,10.21
2023-04-10T07:05:10.089Z,10.70
2023-04-10T07:07:37.292Z,10.85
2023-04-10T07:10:05.143Z,10.88
2023-04-10T07:12:32.241Z,11.10
2023-04-10T07:14:59.455Z,11.22
2023-04-10T07:17:26.988Z,11.23
2023-04-10T07:19:54.122Z,11.27
2023-04-10T07:22:21.229Z,11.61
2023-04-10T07:24:48.631Z,11.90
2023-04-10T07:27:17.125Z,11.78
2023-04-10T07:29:44.216Z,11.87
2023-04-10T07:32:12.146Z,12.40
2023-04-10T07:34:39.312Z,12.70
2023-04-10T07:37:07.159Z,12.54
2023-04-10T07:39:35.867Z,12.80
2023-04-10T07:42:02.999Z,12.51
2023-04-10T07:44:30.512Z,12.25
2023-04-10T07:46:58.921Z,11.93
2023-04-10T07:49:26.230Z,11.90
2023-04-10T07:51:53.395Z,12.17
2023-04-10T07:54:20.839Z,12.10
2023-04-10T07:56:47.968Z,12.04
2023-04-10T07:59:15.426Z,12.14
2023-04-10T08:01:42.788Z,12.16
2023-04-10T08:04:10.916Z,12.28
2023-04-10T08:06:38.105Z,12.35
2023-04-10T08:09:05.232Z,12.38
2023-04-10T08:11:37.383Z,12.58
2023-04-10T08:14:07.047Z,12.77
2023-04-10T08:16:35.970Z,12.77
2023-04-10T08:19:03.356Z,12.86
2023-04-10T08:21:32.038Z,12.79
2023-04-10T08:24:01.827Z,12.58
2023-04-10T08:26:29.731Z,12.69
2023-04-10T08:28:58.418Z,12.99
2023-04-10T08:31:27.463Z,12.87
2023-04-10T08:33:55.353Z,12.77
2023-04-10T08:36:23.027Z,12.92
2023-04-10T08:38:50.648Z,12.87
2023-04-10T08:41:19.638Z,12.94
2023-04-10T08:43:47.489Z,13.04
2023-04-10T08:46:15.558Z,13.06
2023-04-10T08:49:02.059Z,13.26
2023-04-10T08:51:38.003Z,13.35
2023-04-10T08:54:08.198Z,13.32
2023-04-10T08:56:36.651Z,13.22
2023-04-10T08:59:04.147Z,13.33
2023-04-10T09:01:31.701Z,13.61
2023-04-10T09:03:59.943Z,13.85
2023-04-10T09:06:27.601Z,13.75
2023-04-10T09:08:54.790Z,13.80
2023-04-10T09:11:22.302Z,13.52
2023-04-10T09:13:49.511Z,13.78
2023-04-10T09:16:16.808Z,14.10
2023-04-10T09:18:51.622Z,14.19
2023-04-10T09:21:20.056Z,14.55
2023-04-10T09:23:48.395Z,14.87
2023-04-10T09:26:26.044Z,14.88
2023-04-10T09:28:57.190Z,14.59
2023-04-10T09:31:43.897Z,14.52
2023-04-10T09:34:14.740Z,14.53
2023-04-10T09:36:43.325Z,14.51
2023-04-10T09:39:12.058Z,14.54
2023-04-10T09:41:49.721Z,14.40
2023-04-10T09:44:20.078Z,14.29
2023-04-10T09:46:49.718Z,14.23
2023-04-10T09:49:17.385Z,14.02
2023-04-10T09:51:45.061Z,13.91
2023-04-10T09:54:12.482Z,13.82
2023-04-10T09:56:40.231Z,13.97
2023-04-10T09:59:08.019Z,14.13
2023-04-10T10:01:37.859Z,14.09
2023-04-10T10:04:05.790Z,14.12
2023-04-10T10:06:33.746Z,13.92
2023-04-10T10:09:03.310Z,13.85
2023-04-10T10:11:35.382Z,13.87
2023-04-10T10:14:04.441Z,13.73
2023-04-10T10:16:34.937Z,13.65
2023-04-10T10:19:07.019Z,13.73
2023-04-10T10:21:35.125Z,13.65
2023-04-10T10:24:03.318Z,13.78
2023-04-10T10:26:30.624Z,13.84
2023-04-10T10:28:59.209Z,13.97
2023-04-10T10:31:31.306Z,13.91
2023-04-10T10:34:04.787Z,13.95
2023-04-10T10:36:34.553Z,14.21
2023-04-10T10:39:28.025Z,14.41
2023-04-10T10:42:10.836Z,14.40
2023-04-10T10:44:46.643Z,14.40
2023-04-10T10:47:24.986Z,14.31
2023-04-10T10:50:03.536Z,14.49
2023-04-10T10:52:37.908Z,14.75
2023-04-10T10:55:35.690Z,14.81
2023-04-10T10:58:05.431Z,14.69
2023-04-10T11:00:51.399Z,14.51
2023-04-10T11:03:18.812Z,14.35
2023-04-10T11:05:50.320Z,13.91
2023-04-10T11:08:17.669Z,14.04
2023-04-10T11:11:07.215Z,14.23
2023-04-10T11:13:36.193Z,14.27
2023-04-10T11:16:04.978Z,14.44
2023-04-10T11:18:55.773Z,14.35
2023-04-10T11:21:31.425Z,14.22
2023-04-10T11:23:58.589Z,14.32
2023-04-10T11:26:34.985Z,14.35
2023-04-10T11:29:06.608Z,13.98
2023-04-10T11:31:34.384Z,13.84
2023-04-10T11:34:08.322Z,13.63
2023-04-10T11:36:38.409Z,13.67
2023-04-10T11:39:10.393Z,13.81
2023-04-10T11:41:45.839Z,13.97
2023-04-10T11:44:15.384Z,14.14
2023-04-10T11:46:46.881Z,14.12
2023-04-10T11:49:21.037Z,14.17
2023-04-10T11:51:49.980Z,14.29
2023-04-10T11:54:19.477Z,14.36
2023-04-10T11:57:07.256Z,14.36
2023-04-10T11:59:34.865Z,14.18
2023-04-10T12:02:16.080Z,13.95
2023-04-10T12:04:44.545Z,13.83
2023-04-10T12:07:12.099Z,13.84
2023-04-10T12:09:39.254Z,13.73
2023-04-10T12:12:07.776Z,13.71
2023-04-10T12:14:36.980Z,13.69
2023-04-10T12:17:05.597Z,13.71
2023-04-10T12:19:33.973Z,13.74
2023-04-10T12:22:04.534Z,13.73
2023-04-10T12:24:40.907Z,13.88
2023-04-10T12:27:15.681Z,13.91
2023-04-10T12:29:42.813Z,13.84
2023-04-10T12:32:10.422Z,13.92
2023-04-10T12:34:37.596Z,14.03
2023-04-10T12:37:04.821Z,14.22
2023-04-10T12:39:32.440Z,14.17
2023-04-10T12:42:11.923Z,14.11
2023-04-10T12:44:59.769Z,14.07
2023-04-10T12:47:28.995Z,13.95
2023-04-10T12:50:08.473Z,13.76
2023-04-10T12:52:36.522Z,13.62
2023-04-10T12:55:20.966Z,13.50
2023-04-10T12:57:48.861Z,13.40
2023-04-10T13:00:18.756Z,13.37
2023-04-10T13:02:46.945Z,13.35
2023-04-10T13:05:14.844Z,13.32
2023-04-10T13:07:42.490Z,13.38
2023-04-10T13:10:10.305Z,13.31
2023-04-10T13:12:38.964Z,13.34
2023-04-10T13:15:07.826Z,13.31
2023-04-10T13:17:35.787Z,13.38
2023-04-10T13:20:04.638Z,13.44
2023-04-10T13:22:32.183Z,13.56
2023-04-10T13:24:59.517Z,13.71
2023-04-10T13:27:26.746Z,13.78
2023-04-10T13:29:54.203Z,13.80
2023-04-10T13:32:21.399Z,13.85
2023-04-10T13:34:48.588Z,13.95
2023-04-10T13:37:16.109Z,14.11
2023-04-10T13:39:43.669Z,14.41
2023-04-10T13:42:10.911Z,14.43
2023-04-10T13:44:38.439Z,14.32
2023-04-10T13:47:06.320Z,14.52
2023-04-10T13:49:33.715Z,14.96
2023-04-10T13:52:01.274Z,15.16
2023-04-10T13:54:28.643Z,15.05
2023-04-10T13:56:56.220Z,14.92
2023-04-10T13:59:23.727Z,14.74
2023-04-10T14:01:52.651Z,14.77
2023-04-10T14:04:20.490Z,14.93
2023-04-10T14:06:48.578Z,14.91
2023-04-10T14:09:17.247Z,14.72
2023-04-10T14:11:44.730Z,14.50
2023-04-10T14:14:12.076Z,14.51
2023-04-10T14:16:39.350Z,14.50
2023-04-10T14:19:06.866Z,14.56
2023-04-10T14:21:34.119Z,14.51
2023-04-10T14:24:01.249Z,14.62
2023-04-10T14:26:28.747Z,15.06
2023-04-10T14:28:56.105Z,15.43
2023-04-10T14:31:23.369Z,15.63
2023-04-10T14:33:50.837Z,15.63
2023-04-10T14:36:18.022Z,15.27
2023-04-10T14:38:45.234Z,15.20
2023-04-10T14:41:12.644Z,15.19
2023-04-10T14:43:39.723Z,15.10
2023-04-10T14:46:07.127Z,15.00
2023-04-10T14:48:34.689Z,14.92
2023-04-10T14:51:01.945Z,15.01
2023-04-10T14:53:29.083Z,15.01
2023-04-10T14:55:56.511Z,15.20
2023-04-10T14:58:23.775Z,15.08
2023-04-10T15:00:51.862Z,15.12
2023-04-10T15:03:19.479Z,15.25
2023-04-10T15:05:46.621Z,15.52
2023-04-10T15:08:13.775Z,15.79
2023-04-10T15:10:42.343Z,15.97
2023-04-10T15:13:09.534Z,16.15
2023-04-10T15:15:36.721Z,16.20
2023-04-10T15:18:04.152Z,16.25
2023-04-10T15:20:31.310Z,16.32
2023-04-10T15:22:58.756Z,16.34
2023-04-10T15:25:26.145Z,16.45
2023-04-10T15:27:55.407Z,16.53
2023-04-10T15:30:22.618Z,16.58
2023-04-10T15:32:50.157Z,16.61
2023-04-10T15:35:17.351Z,16.53
2023-04-10T15:37:44.506Z,16.55
2023-04-10T15:40:12.133Z,16.59
2023-04-10T15:42:39.278Z,16.59
2023-04-10T15:45:06.942Z,16.53
2023-04-10T15:47:34.481Z,16.23
2023-04-10T15:50:01.667Z,16.12
2023-04-10T15:52:29.448Z,16.03
2023-04-10T15:54:57.321Z,16.03
2023-04-10T15:57:24.444Z,16.01
2023-04-10T15:59:53.229Z,16.01
2023-04-10T16:02:20.835Z,15.86
2023-04-10T16:04:48.449Z,15.89
2023-04-10T16:07:16.141Z,15.85
2023-04-10T16:09:43.274Z,15.76
2023-04-10T16:12:11.251Z,15.67
2023-04-10T16:14:39.198Z,15.62
2023-04-10T16:17:06.293Z,15.54
2023-04-10T16:19:33.716Z,15.58
2023-04-10T16:22:00.859Z,15.56
2023-04-10T16:24:28.012Z,15.58
2023-04-10T16:26:56.467Z,15.52
2023-04-10T16:29:23.734Z,15.61
2023-04-10T16:31:51.065Z,15.61
2023-04-10T16:34:18.647Z,15.55
2023-04-10T16:36:45.741Z,15.55
2023-04-10T16:39:12.817Z,15.54
2023-04-10T16:41:40.293Z,15.53
2023-04-10T16:44:07.598Z,15.52
2023-04-10T16:46:34.819Z,15.51
2023-04-10T16:49:02.681Z,15.42
2023-04-10T16:51:29.791Z,15.31
2023-04-10T16:53:56.946Z,15.25
2023-04-10T16:56:24.442Z,15.17
2023-04-10T16:58:51.846Z,15.06
2023-04-10T17:01:21.473Z,14.96
2023-04-10T17:03:49.221Z,14.98
2023-04-10T17:06:16.708Z,14.85
2023-04-10T17:08:44.597Z,14.84
2023-04-10T17:11:15.924Z,14.79
2023-04-10T17:13:43.099Z,14.75
2023-04-10T17:16:10.323Z,14.71
2023-04-10T17:18:37.838Z,14.58
2023-04-10T17:21:05.195Z,14.51
2023-04-10T17:23:32.302Z,14.53
2023-04-10T17:25:59.824Z,14.40
2023-04-10T17:28:26.969Z,14.31
2023-04-10T17:30:54.130Z,14.19
2023-04-10T17:33:23.588Z,14.11
2023-04-10T17:35:51.666Z,14.11
2023-04-10T17:38:19.025Z,13.99
2023-04-10T17:40:46.577Z,14.02
2023-04-10T17:43:16.640Z,13.98
2023-04-10T17:45:43.898Z,13.93
2023-04-10T17:48:11.444Z,13.87
2023-04-10T17:50:38.651Z,13.80
2023-04-10T17:53:05.761Z,13.75
2023-04-10T17:55:39.050Z,13.71
2023-04-10T17:58:06.588Z,13.63
2023-04-10T18:00:34.724Z,13.62
2023-04-10T18:03:02.299Z,13.57
2023-04-10T18:05:34.674Z,13.52
2023-04-10T18:08:02.201Z,13.53
2023-04-10T18:10:29.321Z,13.51
2023-04-10T18:12:59.123Z,13.50
2023-04-10T18:15:27.256Z,13.48
2023-04-10T18:17:54.710Z,13.46
2023-04-10T18:20:22.422Z,13.39
2023-04-10T18:22:52.711Z,13.41
2023-04-10T18:25:19.819Z,13.43
2023-04-10T18:28:09.783Z,13.40
2023-04-10T18:30:39.098Z,13.46
2023-04-10T18:33:09.920Z,13.63
2023-04-10T18:35:38.746Z,13.67
2023-04-10T18:38:06.508Z,13.39
2023-04-10T18:40:34.621Z,13.32
2023-04-10T18:43:02.091Z,13.15
2023-04-10T18:45:29.317Z,13.14
2023-04-10T18:47:56.454Z,13.22
2023-04-10T18:50:25.982Z,13.46
2023-04-10T18:52:53.154Z,13.43
2023-04-10T18:55:21.232Z,13.24
2023-04-10T18:57:48.652Z,13.17
2023-04-10T19:00:18.420Z,13.23
2023-04-10T19:02:48.501Z,13.09
2023-04-10T19:05:16.707Z,13.03
2023-04-10T19:07:56.773Z,13.11
2023-04-10T19:10:31.186Z,12.98
2023-04-10T19:12:58.590Z,13.02
2023-04-10T19:15:26.779Z,13.07
2023-04-10T19:17:54.899Z,12.83
2023-04-10T19:20:50.207Z,12.72
2023-04-10T19:23:10.273Z,12.76
2023-04-10T19:25:37.561Z,12.80
2023-04-10T19:28:04.870Z,12.81
2023-04-10T19:30:32.918Z,12.88
2023-04-10T19:33:00.284Z,12.83
2023-04-10T19:35:27.562Z,12.68
2023-04-10T19:37:58.223Z,12.68
2023-04-10T19:40:25.504Z,12.47
2023-04-10T19:42:52.915Z,12.80
2023-04-10T19:45:22.133Z,12.98
2023-04-10T19:47:52.572Z,13.06
2023-04-10T19:50:19.841Z,13.18
2023-04-10T19:52:47.339Z,13.28
2023-04-10T19:55:15.545Z,13.11
2023-04-10T19:57:43.705Z,12.91
2023-04-10T20:00:11.838Z,12.67
2023-04-10T20:02:40.550Z,12.65
2023-04-10T20:05:08.211Z,12.57
2023-04-10T20:07:35.636Z,12.51
2023-04-10T20:10:04.337Z,12.39
2023-04-10T20:12:34.947Z,12.29
2023-04-10T20:15:04.005Z,12.33
2023-04-10T20:17:31.281Z,12.34
2023-04-10T20:19:58.580Z,12.19
2023-04-10T20:22:26.172Z,12.12
2023-04-10T20:24:53.371Z,11.96
2023-04-10T20:27:20.606Z,11.81
2023-04-10T20:29:48.099Z,11.83
2023-04-10T20:32:15.382Z,11.87
2023-04-10T20:34:42.563Z,11.75
2023-04-10T20:37:10.121Z,11.65
2023-04-10T20:39:39.867Z,11.55
2023-04-10T20:42:07.243Z,11.43
2023-04-10T20:44:38.551Z,11.42
2023-04-10T20:47:06.540Z,11.52
2023-04-10T20:49:34.127Z,11.51
2023-04-10T20:52:01.685Z,11.32
2023-04-10T20:54:28.853Z,11.40
2023-04-10T20:57:00.191Z,11.53
2023-04-10T20:59:28.573Z,11.57
2023-04-10T21:01:55.806Z,11.48
2023-04-10T21:04:23.138Z,11.15
2023-04-10T21:06:50.677Z,11.18
2023-04-10T21:09:17.908Z,10.96
2023-04-10T21:11:45.113Z,10.62
2023-04-10T21:14:13.291Z,10.52
2023-04-10T21:16:42.522Z,10.28
2023-04-10T21:19:09.952Z,10.10
2023-04-10T21:21:37.451Z,9.93
2023-04-10T21:24:05.637Z,9.86
2023-04-10T21:26:32.870Z,9.79
2023-04-10T21:29:00.299Z,9.71
2023-04-10T21:31:27.578Z,9.66
2023-04-10T21:33:54.806Z,9.56
2023-04-10T21:36:22.234Z,9.46
2023-04-10T21:38:49.426Z,9.46
2023-04-10T21:41:16.699Z,9.36
2023-04-10T21:43:44.151Z,9.32
2023-04-10T21:46:11.489Z,9.17
2023-04-10T21:48:38.692Z,9.01
2023-04-10T21:51:06.516Z,8.94
2023-04-10T21:53:33.830Z,8.92
2023-04-10T21:56:01.007Z,8.81
2023-04-10T21:58:28.457Z,8.77
2023-04-10T22:00:55.696Z,8.67
2023-04-10T22:03:24.139Z,8.71
2023-04-10T22:05:51.505Z,8.69
2023-04-10T22:08:20.165Z,8.78
2023-04-10T22:10:48.131Z,8.66
2023-04-10T22:13:27.400Z,8.60
2023-04-10T22:15:58.092Z,8.56
2023-04-10T22:18:25.349Z,8.57
2023-04-10T22:20:52.530Z,8.48
2023-04-10T22:23:20.083Z,8.54
2023-04-10T22:25:47.249Z,8.36
2023-04-10T22:28:14.772Z,8.27
2023-04-10T22:30:42.484Z,8.19
2023-04-10T22:33:10.487Z,8.11
2023-04-10T22:35:37.964Z,8.14
2023-04-10T22:38:05.476Z,8.04
2023-04-10T22:40:32.655Z,8.03
2023-04-10T22:42:59.862Z,7.90
2023-04-10T22:45:27.306Z,7.94
2023-04-10T22:47:54.502Z,7.97
2023-04-10T22:50:21.723Z,8.13
2023-04-10T22:52:49.314Z,8.19
2023-04-10T22:55:16.641Z,8.10
2023-04-10T22:57:48.350Z,8.09
2023-04-10T23:00:16.305Z,7.97
2023-04-10T23:02:43.748Z,7.88
2023-04-10T23:05:11.080Z,7.78
2023-04-10T23:07:38.549Z,7.73
2023-04-10T23:10:06.485Z,7.87
2023-04-10T23:12:33.652Z,7.83
2023-04-10T23:15:01.269Z,7.78
2023-04-10T23:17:28.579Z,7.77
2023-04-10T23:19:55.828Z,7.84
2023-04-10T23:22:23.462Z,7.90
2023-04-10T23:24:54.778Z,7.84
2023-04-10T23:27:22.249Z,7.70
2023-04-10T23:29:49.996Z,7.63
2023-04-10T23:32:17.077Z,7.70
2023-04-10T23:34:44.226Z,7.77
2023-04-10T23:37:11.699Z,7.73
2023-04-10T23:39:39.297Z,7.68
2023-04-10T23:42:06.517Z,7.58
2023-04-10T23:44:34.209Z,7.58
2023-04-10T23:47:01.435Z,7.61
2023-04-10T23:49:28.872Z,7.57
2023-04-10T23:51:56.339Z,7.47
2023-04-10T23:54:23.570Z,7.40
2023-04-10T23:56:50.739Z,7.32
2023-04-10T23:59:19.204Z,7.19
